Heat Index SAI AWOS Graphical Display Untitled Document
Bertrand Chaffee Hospital Heliport (2NK6) Springville, New York, USA
200
12:36
09/05/2018
04
N/A
N/A
30.11
N/A
1420
65(F), 18(C)
51(F), 11(C)
65 F
60%
CLR
10
N/A
0"
N/A
12:36 zulu Wind 200 at 04 Knots, Altimeter 30.11
METAR K2NK6 091236Z AUTO 20004KT 10SM CLR 18/11 A3011 A02 P0000
METAR:
FAA Disclaimer--Advisory Use ONLY, not for flight info--
INFO:
Wind Direction:
Wind Speed:
Wind Gust:
Wind Variable:
Altimeter:
Dens Alt:
Elev:
Temp:
Dwpt:
Wind Chill
Rel Humidity:
Ceiling:
Visibility:
Prsnt Wea:
PCPN:
Remarks:
NOTICE--Current weather data is more than 15 minutes old. The SAI AWOS/ASOS Display is inoperative at this time.
How to read the WebPage